createdAt,value
2019-03-02T00:01:45.838Z,20.50
2019-03-02T00:04:16.823Z,20.50
2019-03-02T00:06:46.458Z,20.50
2019-03-02T00:09:16.099Z,20.50
2019-03-02T00:11:45.742Z,20.50
2019-03-02T00:14:15.816Z,20.50
2019-03-02T00:16:47.688Z,20.50
2019-03-02T00:19:17.403Z,20.50
2019-03-02T00:21:47.034Z,20.40
2019-03-02T00:24:16.662Z,20.50
2019-03-02T00:26:46.953Z,20.50
2019-03-02T00:29:16.587Z,20.50
2019-03-02T00:31:46.222Z,20.50
2019-03-02T00:34:15.855Z,20.50
2019-03-02T00:36:45.487Z,20.50
2019-03-02T00:39:15.585Z,20.50
2019-03-02T00:41:46.522Z,20.50
2019-03-02T00:44:16.225Z,20.40
2019-03-02T00:46:45.851Z,20.40
2019-03-02T00:49:15.559Z,20.50
2019-03-02T00:51:46.306Z,20.50
2019-03-02T00:54:16.519Z,20.40
2019-03-02T00:56:46.150Z,20.50
2019-03-02T00:59:15.854Z,20.50
2019-03-02T01:01:45.482Z,20.40
2019-03-02T01:04:15.111Z,20.40
2019-03-02T01:06:45.058Z,20.40
2019-03-02T01:09:16.227Z,20.40
2019-03-02T01:11:45.855Z,20.40
2019-03-02T01:14:15.488Z,20.40
2019-03-02T01:16:45.123Z,20.40
2019-03-02T01:19:17.562Z,20.40
2019-03-02T01:21:46.075Z,20.40
2019-03-02T01:24:15.698Z,20.50
2019-03-02T01:26:46.317Z,20.40
2019-03-02T01:29:19.159Z,20.40
2019-03-02T01:31:47.419Z,20.40
2019-03-02T01:34:18.020Z,20.40
2019-03-02T01:36:47.659Z,20.40
2019-03-02T01:39:17.279Z,20.40
2019-03-02T01:41:46.926Z,20.40
2019-03-02T01:44:17.525Z,20.40
2019-03-02T01:46:47.203Z,20.40
2019-03-02T01:49:16.827Z,20.40
2019-03-02T01:51:46.454Z,20.40
2019-03-02T01:54:17.882Z,20.40
2019-03-02T01:56:47.403Z,20.40
2019-03-02T01:59:17.095Z,20.40
2019-03-02T02:01:46.727Z,20.40
2019-03-02T02:04:18.753Z,20.40
2019-03-02T02:06:47.767Z,20.40
2019-03-02T02:09:17.411Z,20.40
2019-03-02T02:11:49.812Z,20.40
2019-03-02T02:14:19.757Z,20.40
2019-03-02T02:16:49.526Z,20.40
2019-03-02T02:19:19.165Z,20.40
2019-03-02T02:21:48.959Z,20.40
2019-03-02T02:24:21.911Z,20.40
2019-03-02T02:26:50.006Z,20.40
2019-03-02T02:29:19.639Z,20.40
2019-03-02T02:31:49.359Z,20.40
2019-03-02T02:34:22.247Z,20.30
2019-03-02T02:36:53.329Z,20.40
2019-03-02T02:39:21.743Z,20.40
2019-03-02T02:41:51.403Z,20.40
2019-03-02T02:44:21.036Z,20.40
2019-03-02T02:46:50.670Z,20.40
2019-03-02T02:49:20.305Z,20.40
2019-03-02T02:51:50.442Z,20.40
2019-03-02T02:54:23.454Z,20.40
2019-03-02T02:56:54.277Z,20.30
2019-03-02T02:59:22.791Z,20.40
2019-03-02T03:01:52.417Z,20.40
2019-03-02T03:04:22.060Z,20.30
2019-03-02T03:06:51.688Z,20.30
2019-03-02T03:09:45.450Z,20.30
2019-03-02T03:12:17.924Z,20.40
2019-03-02T03:14:46.387Z,20.30
2019-03-02T03:17:16.070Z,20.30
2019-03-02T03:19:45.702Z,20.30
2019-03-02T03:22:16.319Z,20.30
2019-03-02T03:24:45.959Z,20.30
2019-03-02T03:27:15.591Z,20.30
2019-03-02T03:29:49.673Z,20.30
2019-03-02T03:32:16.572Z,20.30
2019-03-02T03:34:46.308Z,20.30
2019-03-02T03:37:15.939Z,20.30
2019-03-02T03:39:46.550Z,20.30
2019-03-02T03:42:22.267Z,20.30
2019-03-02T03:44:48.295Z,20.30
2019-03-02T03:47:18.021Z,20.30
2019-03-02T03:49:47.669Z,20.30
2019-03-02T03:52:17.301Z,20.30
2019-03-02T03:54:46.925Z,20.30
2019-03-02T03:57:17.153Z,20.30
2019-03-02T03:59:47.900Z,20.30
2019-03-02T04:02:17.537Z,20.30
2019-03-02T04:04:47.312Z,20.30
2019-03-02T04:07:17.008Z,20.30
2019-03-02T04:09:48.103Z,20.30
2019-03-02T04:12:19.953Z,20.30
2019-03-02T04:14:49.347Z,20.30
2019-03-02T04:17:18.965Z,20.30
2019-03-02T04:19:48.679Z,20.20
2019-03-02T04:22:18.928Z,20.20
2019-03-02T04:24:48.557Z,20.20
2019-03-02T04:27:18.198Z,20.20
2019-03-02T04:29:50.293Z,20.20
2019-03-02T04:32:19.139Z,20.30
2019-03-02T04:34:48.811Z,20.30
2019-03-02T04:37:20.213Z,20.30
2019-03-02T04:39:50.224Z,20.30
2019-03-02T04:42:20.699Z,20.30
2019-03-02T04:44:50.339Z,20.40
2019-03-02T04:47:22.536Z,20.40
2019-03-02T04:49:51.674Z,20.30
2019-03-02T04:52:22.208Z,20.40
2019-03-02T04:54:51.877Z,20.40
2019-03-02T04:57:21.637Z,20.40
2019-03-02T04:59:53.699Z,20.40
2019-03-02T05:02:22.678Z,20.40
2019-03-02T05:04:52.297Z,20.40
2019-03-02T05:07:22.302Z,20.30
2019-03-02T05:09:52.916Z,20.30
2019-03-02T05:12:22.643Z,20.40
2019-03-02T05:14:52.450Z,20.30
2019-03-02T05:17:22.148Z,20.30
2019-03-02T05:19:51.799Z,20.30
2019-03-02T05:22:21.423Z,20.30
2019-03-02T05:24:51.062Z,20.30
2019-03-02T05:27:20.688Z,20.30
2019-03-02T05:29:50.691Z,20.30
2019-03-02T05:32:21.644Z,20.30
2019-03-02T05:34:52.250Z,20.30
2019-03-02T05:37:21.874Z,20.30
2019-03-02T05:39:52.911Z,20.30
2019-03-02T05:42:22.835Z,20.30
2019-03-02T05:44:52.467Z,20.30
2019-03-02T05:47:22.091Z,20.30
2019-03-02T05:49:54.673Z,20.20
2019-03-02T05:52:23.062Z,20.30
2019-03-02T05:54:52.851Z,20.30
2019-03-02T05:57:22.483Z,20.20
2019-03-02T05:59:52.126Z,20.20
2019-03-02T06:02:21.767Z,20.20
2019-03-02T06:04:53.663Z,20.20
2019-03-02T06:07:22.719Z,20.20
2019-03-02T06:09:52.460Z,20.20
2019-03-02T06:12:22.083Z,20.20
2019-03-02T06:14:51.719Z,20.20
2019-03-02T06:17:21.351Z,20.20
2019-03-02T06:19:50.972Z,20.20
2019-03-02T06:22:21.957Z,20.20
2019-03-02T06:24:51.648Z,20.20
2019-03-02T06:27:21.291Z,20.20
2019-03-02T06:29:50.924Z,20.20
2019-03-02T06:32:20.564Z,20.20
2019-03-02T06:34:51.969Z,20.10
2019-03-02T06:37:21.542Z,20.20
2019-03-02T06:39:51.154Z,20.20
2019-03-02T06:42:20.807Z,20.20
2019-03-02T06:44:50.462Z,20.20
2019-03-02T06:47:20.094Z,20.20
2019-03-02T06:49:53.231Z,20.20
2019-03-02T06:52:25.133Z,20.20
2019-03-02T06:54:52.423Z,20.20
2019-03-02T06:57:22.131Z,20.20
2019-03-02T06:59:51.763Z,20.20
2019-03-02T07:02:21.395Z,20.20
2019-03-02T07:04:51.025Z,20.20
2019-03-02T07:07:21.818Z,20.20
2019-03-02T07:09:51.971Z,20.20
2019-03-02T07:12:21.607Z,20.30
2019-03-02T07:14:51.930Z,20.30
2019-03-02T07:17:39.583Z,20.30
2019-03-02T07:20:15.482Z,20.30
2019-03-02T07:22:48.549Z,20.40
2019-03-02T07:25:16.583Z,20.40
2019-03-02T07:27:46.286Z,20.40
2019-03-02T07:30:16.060Z,20.40
2019-03-02T07:32:45.698Z,20.40
2019-03-02T07:35:15.839Z,20.40
2019-03-02T07:37:47.143Z,20.40
2019-03-02T07:40:17.335Z,20.40
2019-03-02T07:42:46.988Z,20.40
2019-03-02T07:45:17.487Z,20.40
2019-03-02T07:47:47.273Z,20.50
2019-03-02T07:50:16.977Z,20.50
2019-03-02T07:52:49.659Z,20.50
2019-03-02T07:55:19.154Z,20.50
2019-03-02T07:57:49.255Z,20.50
2019-03-02T08:00:19.126Z,20.50
2019-03-02T08:02:48.913Z,20.50
2019-03-02T08:05:18.660Z,20.60
2019-03-02T08:07:48.368Z,20.50
2019-03-02T08:10:17.986Z,20.50
2019-03-02T08:12:47.703Z,20.50
2019-03-02T08:15:20.114Z,20.50
2019-03-02T08:17:50.691Z,20.50
2019-03-02T08:20:20.844Z,20.40
2019-03-02T08:22:51.875Z,20.40
2019-03-02T08:25:21.499Z,20.50
2019-03-02T08:27:51.555Z,20.50
2019-03-02T08:30:22.583Z,20.40
2019-03-02T08:32:54.122Z,20.40
2019-03-02T08:35:23.687Z,20.40
2019-03-02T08:37:53.333Z,20.40
2019-03-02T08:40:24.359Z,20.40
2019-03-02T08:42:54.171Z,20.40
2019-03-02T08:45:23.871Z,20.40
2019-03-02T08:47:53.512Z,20.40
2019-03-02T08:50:23.139Z,20.40
2019-03-02T08:52:52.775Z,20.40
2019-03-02T08:55:22.520Z,20.70
2019-03-02T08:57:53.824Z,20.80
2019-03-02T09:00:23.636Z,20.60
2019-03-02T09:02:55.246Z,20.50
2019-03-02T09:05:42.886Z,20.50
2019-03-02T09:07:56.115Z,20.50
2019-03-02T09:10:25.756Z,20.50
2019-03-02T09:12:58.657Z,20.40
2019-03-02T09:15:29.928Z,20.40
2019-03-02T09:17:58.297Z,20.40
2019-03-02T09:20:28.132Z,20.40
2019-03-02T09:23:00.559Z,20.50
2019-03-02T09:25:29.606Z,20.40
2019-03-02T09:27:59.379Z,20.40
2019-03-02T09:30:29.077Z,20.40
2019-03-02T09:32:58.735Z,20.40
2019-03-02T09:35:28.368Z,20.40
2019-03-02T09:37:58.168Z,20.40
2019-03-02T09:40:28.018Z,20.40
2019-03-02T09:42:57.659Z,20.50
2019-03-02T09:45:27.282Z,20.40
2019-03-02T09:47:56.938Z,20.50
2019-03-02T09:50:26.734Z,20.50
2019-03-02T09:52:56.374Z,20.50
2019-03-02T09:55:28.835Z,20.50
2019-03-02T09:57:58.789Z,20.50
2019-03-02T10:00:29.558Z,20.50
2019-03-02T10:02:59.202Z,20.50
2019-03-02T10:05:28.827Z,20.50
2019-03-02T10:07:58.535Z,20.60
2019-03-02T10:10:31.599Z,20.50
2019-03-02T10:13:00.466Z,20.50
2019-03-02T10:15:30.653Z,20.50
2019-03-02T10:18:00.511Z,20.60
2019-03-02T10:20:30.143Z,20.50
2019-03-02T10:23:02.086Z,20.50
2019-03-02T10:25:32.812Z,20.50
2019-03-02T10:28:04.686Z,20.50
2019-03-02T10:30:33.911Z,20.50
2019-03-02T10:33:03.615Z,20.50
2019-03-02T10:35:33.243Z,20.50
2019-03-02T10:38:03.936Z,20.50
2019-03-02T10:40:34.687Z,20.50
2019-03-02T10:43:07.375Z,20.50
2019-03-02T10:45:36.150Z,20.50
2019-03-02T10:48:05.791Z,20.50
2019-03-02T10:50:35.420Z,20.50
2019-03-02T10:53:05.153Z,20.50
2019-03-02T10:55:35.759Z,20.40
2019-03-02T10:58:05.499Z,20.50
2019-03-02T11:00:35.352Z,20.50
2019-03-02T11:03:05.179Z,20.40
2019-03-02T11:05:52.849Z,20.40
2019-03-02T11:08:45.050Z,20.40
2019-03-02T11:11:33.620Z,20.40
2019-03-02T11:14:27.843Z,20.50
2019-03-02T11:17:05.251Z,20.50
2019-03-02T11:19:43.866Z,20.60
2019-03-02T11:22:38.332Z,20.50
2019-03-02T11:25:14.083Z,20.50
2019-03-02T11:27:51.665Z,20.50
2019-03-02T11:30:41.392Z,20.50
2019-03-02T11:33:21.287Z,20.60
2019-03-02T11:36:21.907Z,20.50
2019-03-02T11:39:13.827Z,20.50
2019-03-02T11:41:58.947Z,20.50
2019-03-02T11:44:37.674Z,20.50
2019-03-02T11:47:16.695Z,20.50
2019-03-02T11:50:10.882Z,20.50
2019-03-02T11:53:06.299Z,20.50
2019-03-02T11:55:45.900Z,20.50
2019-03-02T11:58:43.375Z,20.50
2019-03-02T12:01:29.966Z,20.50
2019-03-02T12:04:25.043Z,20.50
2019-03-02T12:07:13.159Z,20.40
2019-03-02T12:10:00.963Z,20.40
2019-03-02T12:12:55.631Z,20.50
2019-03-02T12:15:49.316Z,20.40
2019-03-02T12:18:56.034Z,20.50
2019-03-02T12:21:46.814Z,20.40
2019-03-02T12:24:50.379Z,20.40
2019-03-02T12:27:30.667Z,20.50
2019-03-02T12:30:10.075Z,20.50
2019-03-02T12:32:57.471Z,20.50
2019-03-02T12:35:40.588Z,20.60
2019-03-02T12:38:27.427Z,20.60
2019-03-02T12:41:12.161Z,20.60
2019-03-02T12:44:01.953Z,20.70
2019-03-02T12:46:52.136Z,20.80
2019-03-02T12:49:31.335Z,20.90
2019-03-02T12:52:08.127Z,21.00
2019-03-02T12:54:49.675Z,21.00
2019-03-02T12:57:30.174Z,21.00
2019-03-02T13:00:21.623Z,21.00
2019-03-02T13:03:13.391Z,21.10
2019-03-02T13:05:53.866Z,21.10
2019-03-02T13:08:37.543Z,21.10
2019-03-02T13:11:44.603Z,21.10
2019-03-02T13:14:32.346Z,21.10
2019-03-02T13:17:18.411Z,21.20
2019-03-02T13:20:03.843Z,21.30
2019-03-02T13:23:03.158Z,21.20
2019-03-02T13:25:49.631Z,21.20
2019-03-02T13:28:46.208Z,21.20
2019-03-02T13:31:26.733Z,21.10
2019-03-02T13:34:22.519Z,21.00
2019-03-02T13:37:26.290Z,21.00
2019-03-02T13:40:13.743Z,21.00
2019-03-02T13:43:12.149Z,21.00
2019-03-02T13:46:00.974Z,21.00
2019-03-02T13:48:54.537Z,21.00
2019-03-02T13:51:37.394Z,21.00
2019-03-02T13:54:24.879Z,21.00
2019-03-02T13:57:17.607Z,21.00
2019-03-02T14:00:07.780Z,21.00
2019-03-02T14:02:56.294Z,21.00
2019-03-02T14:05:44.846Z,21.00
2019-03-02T14:08:43.410Z,21.00
2019-03-02T14:11:23.023Z,21.00
2019-03-02T14:14:08.491Z,21.00
2019-03-02T14:17:04.008Z,20.90
2019-03-02T14:20:02.551Z,20.90
2019-03-02T14:22:42.095Z,20.80
2019-03-02T14:25:39.783Z,20.70
2019-03-02T14:28:43.676Z,20.70
2019-03-02T14:31:20.338Z,20.70
2019-03-02T14:34:07.273Z,20.70
2019-03-02T14:36:45.890Z,20.70
2019-03-02T14:39:34.588Z,20.60
2019-03-02T14:42:24.014Z,20.70
2019-03-02T14:45:15.756Z,20.70
2019-03-02T14:47:57.191Z,20.70
2019-03-02T14:50:44.017Z,20.70
2019-03-02T14:53:30.399Z,20.70
2019-03-02T14:56:13.728Z,20.70
2019-03-02T14:59:10.225Z,20.70
2019-03-02T15:01:56.123Z,20.80
2019-03-02T15:04:44.939Z,20.80
2019-03-02T15:07:32.632Z,20.80
2019-03-02T15:10:07.511Z,20.80
2019-03-02T15:13:11.474Z,20.80
2019-03-02T15:15:47.636Z,20.80
2019-03-02T15:18:36.497Z,20.80
2019-03-02T15:21:37.129Z,20.80
2019-03-02T15:24:15.017Z,20.80
2019-03-02T15:27:12.761Z,20.80
2019-03-02T15:29:57.231Z,20.80
2019-03-02T15:32:44.936Z,20.70
2019-03-02T15:35:34.953Z,20.70
2019-03-02T15:38:22.827Z,20.70
2019-03-02T15:41:10.441Z,20.70
2019-03-02T15:44:03.067Z,20.70
2019-03-02T15:46:41.099Z,20.70
2019-03-02T15:49:23.508Z,20.70
2019-03-02T15:52:10.668Z,20.70
2019-03-02T15:54:51.774Z,20.70
2019-03-02T15:57:39.453Z,20.70
2019-03-02T16:00:30.884Z,20.70
2019-03-02T16:03:19.047Z,20.70
2019-03-02T16:06:15.026Z,20.70
2019-03-02T16:09:01.602Z,20.60
2019-03-02T16:11:40.164Z,20.60
2019-03-02T16:14:28.901Z,20.60
2019-03-02T16:17:17.726Z,20.60
2019-03-02T16:20:02.398Z,20.60
2019-03-02T16:22:41.359Z,20.60
2019-03-02T16:25:35.979Z,20.60
2019-03-02T16:28:14.394Z,20.60
2019-03-02T16:30:53.212Z,20.60
2019-03-02T16:33:33.322Z,20.60
2019-03-02T16:36:11.674Z,20.60
2019-03-02T16:38:48.171Z,20.60
2019-03-02T16:41:34.272Z,20.60
2019-03-02T16:44:21.227Z,20.60
2019-03-02T16:47:14.961Z,20.60
2019-03-02T16:49:57.763Z,20.60
2019-03-02T16:52:42.991Z,20.60
2019-03-02T16:55:31.391Z,20.60
2019-03-02T16:58:13.973Z,20.60
2019-03-02T17:01:02.232Z,20.60
2019-03-02T17:03:51.034Z,20.60
2019-03-02T17:06:58.038Z,20.60
2019-03-02T17:09:49.551Z,20.60
2019-03-02T17:12:42.543Z,20.60
2019-03-02T17:15:22.644Z,20.60
2019-03-02T17:18:07.243Z,20.60
2019-03-02T17:20:49.779Z,20.60
2019-03-02T17:23:42.667Z,20.60
2019-03-02T17:26:15.239Z,20.60
2019-03-02T17:29:04.048Z,20.60
2019-03-02T17:31:55.907Z,20.60
2019-03-02T17:34:47.414Z,20.60
2019-03-02T17:37:27.235Z,20.60
2019-03-02T17:40:13.162Z,20.60
2019-03-02T17:42:52.142Z,20.60
2019-03-02T17:45:36.587Z,20.60
2019-03-02T17:48:24.502Z,20.60
2019-03-02T17:51:01.629Z,20.60
2019-03-02T17:53:50.368Z,20.60
2019-03-02T17:56:42.504Z,20.60
2019-03-02T17:59:46.323Z,20.60
2019-03-02T18:02:42.038Z,20.60
2019-03-02T18:05:23.074Z,20.60
2019-03-02T18:08:03.611Z,20.60
2019-03-02T18:10:50.867Z,20.50
2019-03-02T18:13:43.254Z,20.50
2019-03-02T18:16:29.127Z,20.60
2019-03-02T18:18:58.801Z,20.50
2019-03-02T18:21:29.779Z,20.50
2019-03-02T18:24:00.669Z,20.50
2019-03-02T18:26:30.402Z,20.60
2019-03-02T18:29:00.116Z,20.50
2019-03-02T18:31:29.899Z,20.50
2019-03-02T18:34:04.023Z,20.50
2019-03-02T18:36:40.496Z,20.50
2019-03-02T18:39:07.367Z,20.60
2019-03-02T18:41:37.208Z,20.60
2019-03-02T18:44:06.990Z,20.60
2019-03-02T18:46:36.712Z,20.60
2019-03-02T18:49:36.566Z,20.50
2019-03-02T18:52:35.298Z,20.60
2019-03-02T18:55:06.760Z,20.60
2019-03-02T18:57:36.551Z,20.50
2019-03-02T19:00:16.579Z,20.60
2019-03-02T19:02:47.866Z,20.50
2019-03-02T19:05:16.385Z,20.60
2019-03-02T19:07:46.007Z,20.60
2019-03-02T19:10:15.799Z,20.60
2019-03-02T19:12:45.431Z,20.60
2019-03-02T19:15:15.314Z,20.60
2019-03-02T19:17:46.050Z,20.60
2019-03-02T19:20:16.181Z,20.60
2019-03-02T19:22:46.916Z,20.60
2019-03-02T19:25:16.752Z,20.60
2019-03-02T19:27:46.499Z,20.60
2019-03-02T19:30:17.795Z,20.60
2019-03-02T19:32:47.535Z,20.60
2019-03-02T19:35:17.351Z,20.60
2019-03-02T19:37:47.055Z,20.60
2019-03-02T19:40:18.677Z,20.60
2019-03-02T19:42:48.308Z,20.60
2019-03-02T19:45:18.195Z,20.60
2019-03-02T19:47:47.971Z,20.60
2019-03-02T19:50:18.907Z,20.60
2019-03-02T19:52:48.611Z,20.70
2019-03-02T19:55:18.407Z,20.70
2019-03-02T19:57:48.126Z,20.70
2019-03-02T20:00:22.717Z,20.70
2019-03-02T20:02:52.529Z,20.70
2019-03-02T20:05:22.287Z,20.70
2019-03-02T20:07:52.076Z,20.70
2019-03-02T20:10:21.914Z,20.70
2019-03-02T20:12:51.670Z,20.70
2019-03-02T20:15:21.455Z,20.70
2019-03-02T20:17:51.171Z,20.70
2019-03-02T20:20:20.962Z,20.70
2019-03-02T20:22:51.582Z,20.70
2019-03-02T20:25:21.275Z,20.70
2019-03-02T20:27:51.035Z,20.70
2019-03-02T20:30:20.935Z,20.80
2019-03-02T20:32:50.579Z,20.80
2019-03-02T20:35:21.507Z,20.80
2019-03-02T20:37:51.371Z,20.80
2019-03-02T20:40:21.450Z,20.80
2019-03-02T20:42:51.239Z,20.80
2019-03-02T20:45:21.012Z,20.80
2019-03-02T20:47:50.668Z,20.80
2019-03-02T20:50:20.380Z,20.80
2019-03-02T20:52:50.095Z,20.80
2019-03-02T20:55:19.800Z,20.80
2019-03-02T20:57:50.410Z,20.70
2019-03-02T21:00:22.655Z,20.70
2019-03-02T21:02:52.751Z,20.80
2019-03-02T21:05:22.531Z,20.70
2019-03-02T21:07:52.578Z,20.70
2019-03-02T21:10:23.386Z,20.80
2019-03-02T21:12:53.159Z,20.80
2019-03-02T21:15:28.183Z,20.70
2019-03-02T21:17:59.227Z,20.70
2019-03-02T21:20:29.120Z,20.70
2019-03-02T21:22:58.903Z,20.70
2019-03-02T21:25:28.670Z,20.70
2019-03-02T21:27:58.383Z,20.80
2019-03-02T21:30:28.018Z,20.70
2019-03-02T21:32:57.673Z,20.70
2019-03-02T21:35:27.300Z,20.80
2019-03-02T21:37:57.082Z,20.70
2019-03-02T21:40:26.840Z,20.70
2019-03-02T21:42:56.509Z,20.70
2019-03-02T21:45:26.329Z,20.70
2019-03-02T21:47:56.190Z,20.70
2019-03-02T21:50:28.011Z,20.80
2019-03-02T21:52:57.731Z,20.70
2019-03-02T21:55:27.435Z,20.70
2019-03-02T21:57:57.527Z,20.70
2019-03-02T22:00:27.262Z,20.70
2019-03-02T22:02:57.872Z,20.70
2019-03-02T22:05:27.583Z,20.70
2019-03-02T22:07:57.291Z,20.70
2019-03-02T22:10:30.000Z,20.70
2019-03-02T22:12:59.716Z,20.70
2019-03-02T22:15:29.354Z,20.70
2019-03-02T22:17:59.004Z,20.70
2019-03-02T22:20:28.639Z,20.70
2019-03-02T22:22:58.286Z,20.70
2019-03-02T22:25:27.922Z,20.70
2019-03-02T22:27:57.646Z,20.70
2019-03-02T22:30:27.299Z,20.70
2019-03-02T22:32:57.023Z,20.70
2019-03-02T22:35:26.647Z,20.70
2019-03-02T22:37:56.346Z,20.70
2019-03-02T22:40:27.074Z,20.70
2019-03-02T22:42:56.765Z,20.70
2019-03-02T22:45:26.471Z,20.70
2019-03-02T22:47:56.115Z,20.70
2019-03-02T22:50:25.780Z,20.70
2019-03-02T22:52:55.567Z,20.60
2019-03-02T22:55:25.270Z,20.60
2019-03-02T22:57:54.917Z,20.60
2019-03-02T23:00:56.636Z,20.70
2019-03-02T23:03:25.230Z,20.60
2019-03-02T23:05:54.923Z,20.60
2019-03-02T23:08:24.630Z,20.60
2019-03-02T23:10:54.269Z,20.60
2019-03-02T23:13:23.918Z,20.60
2019-03-02T23:15:53.542Z,20.60
2019-03-02T23:18:23.183Z,20.60
2019-03-02T23:20:52.806Z,20.60
2019-03-02T23:23:22.511Z,20.60
2019-03-02T23:25:52.139Z,20.60
2019-03-02T23:28:21.878Z,20.60
2019-03-02T23:30:51.516Z,20.60
2019-03-02T23:33:21.657Z,20.60
2019-03-02T23:35:51.339Z,20.60
2019-03-02T23:38:21.056Z,20.60
2019-03-02T23:40:50.748Z,20.60
2019-03-02T23:43:20.390Z,20.60
2019-03-02T23:45:50.012Z,20.60
2019-03-02T23:48:19.651Z,20.60
2019-03-02T23:50:49.361Z,20.60
2019-03-02T23:53:18.999Z,20.60
2019-03-02T23:55:48.811Z,20.60
2019-03-02T23:58:18.452Z,20.60
